Time;durP1;ratioP1;P1;durP2;ratioP2;P2;SDS_P1;SDS_P2;PMS_P1;PMS_P2;Temp;Humidity;BMP_temperature;BMP_pressure;BME280_temperature;BME280_humidity;BME280_pressure;Samples;Min_cycle;Max_cycle;Signal;HPM_P1;HPM_P2
2023/04/21 00:01:54;;;;;;;41.50;23.77;;;7.00;99.90;;;;;;7592806;19;20162;-71
2023/04/21 00:04:27;;;;;;;39.47;23.30;;;7.10;99.90;;;;;;7612597;19;20007;-71
2023/04/21 00:07:02;;;;;;;38.33;22.27;;;7.10;99.90;;;;;;7579223;19;20022;-70
2023/04/21 00:09:34;;;;;;;37.40;22.75;;;7.00;99.90;;;;;;7590057;19;20444;-71
2023/04/21 00:12:06;;;;;;;40.45;25.33;;;7.10;99.90;;;;;;7584815;19;20015;-70
2023/04/21 00:14:38;;;;;;;38.58;23.67;;;7.00;99.90;;;;;;7607374;19;20030;-71
2023/04/21 00:17:11;;;;;;;38.83;22.55;;;7.00;99.90;;;;;;7587706;19;20421;-71
2023/04/21 00:19:43;;;;;;;39.83;23.75;;;7.00;99.90;;;;;;7587616;19;20042;-70
2023/04/21 00:22:17;;;;;;;37.40;23.63;;;6.90;99.90;;;;;;7589527;19;20019;-71
2023/04/21 00:24:49;;;;;;;36.03;21.05;;;6.90;99.90;;;;;;7595789;19;20023;-71
2023/04/21 00:27:21;;;;;;;38.85;23.08;;;7.00;99.90;;;;;;7604589;19;20025;-71
2023/04/21 00:29:53;;;;;;;37.97;23.17;;;7.00;99.90;;;;;;7593819;19;20579;-71
2023/04/21 00:32:25;;;;;;;38.40;22.52;;;6.90;99.90;;;;;;7581523;19;20018;-71
2023/04/21 00:34:57;;;;;;;36.92;22.25;;;6.90;99.90;;;;;;7596352;19;20018;-71
2023/04/21 00:37:30;;;;;;;39.22;23.10;;;6.90;99.90;;;;;;7581152;19;20032;-71
2023/04/21 00:40:03;;;;;;;39.63;23.27;;;7.00;99.90;;;;;;7598149;19;20089;-70
2023/04/21 00:42:35;;;;;;;39.13;23.10;;;6.90;99.90;;;;;;7587872;19;20018;-70
2023/04/21 00:45:08;;;;;;;36.47;22.15;;;6.90;99.90;;;;;;7592546;19;21256;-71
2023/04/21 00:47:41;;;;;;;34.03;21.52;;;6.90;99.90;;;;;;7579747;19;20065;-71
2023/04/21 00:50:15;;;;;;;40.20;22.98;;;6.90;99.90;;;;;;7569501;19;20014;-71
2023/04/21 00:52:48;;;;;;;33.13;21.08;;;7.00;99.90;;;;;;7583285;19;20018;-70
2023/04/21 00:55:20;;;;;;;37.30;23.45;;;7.00;99.90;;;;;;7580537;19;20947;-71
2023/04/21 00:57:55;;;;;;;34.28;21.23;;;7.00;99.90;;;;;;7586075;19;20034;-71
2023/04/21 01:00:31;;;;;;;36.47;22.23;;;7.00;99.90;;;;;;7593792;19;20073;-71
2023/04/21 01:03:05;;;;;;;34.50;20.33;;;7.00;99.90;;;;;;7579493;19;20014;-72
2023/04/21 01:05:37;;;;;;;31.00;19.50;;;7.00;99.90;;;;;;7587061;19;20014;-72
2023/04/21 01:08:10;;;;;;;33.67;20.85;;;7.00;99.90;;;;;;7569989;19;20032;-71
2023/04/21 01:10:42;;;;;;;28.60;18.00;;;7.00;99.90;;;;;;7578761;19;20046;-72
2023/04/21 01:13:19;;;;;;;28.10;17.35;;;7.00;99.90;;;;;;7583394;19;20018;-72
2023/04/21 01:15:52;;;;;;;30.17;18.10;;;6.90;99.90;;;;;;7589381;19;20022;-72
2023/04/21 01:18:24;;;;;;;33.42;20.60;;;7.00;99.90;;;;;;7579496;19;20018;-72
2023/04/21 01:20:57;;;;;;;34.58;20.25;;;6.90;99.90;;;;;;7589851;19;20010;-71
2023/04/21 01:23:29;;;;;;;40.97;20.65;;;6.90;99.90;;;;;;7580271;19;20018;-72
2023/04/21 01:26:02;;;;;;;35.22;20.67;;;6.90;99.90;;;;;;7581647;19;20346;-71
2023/04/21 01:28:35;;;;;;;31.08;19.60;;;6.90;99.90;;;;;;7587639;19;20010;-71
2023/04/21 01:31:08;;;;;;;35.97;19.35;;;6.90;99.90;;;;;;7608010;19;20018;-72
2023/04/21 01:33:41;;;;;;;35.33;20.35;;;6.90;99.90;;;;;;7591280;19;20010;-71
2023/04/21 01:36:13;;;;;;;33.65;20.00;;;6.90;99.90;;;;;;7583009;19;20029;-71
2023/04/21 01:38:45;;;;;;;35.42;19.60;;;6.80;99.90;;;;;;7596846;19;20026;-72
2023/04/21 01:41:18;;;;;;;40.97;22.00;;;6.90;99.90;;;;;;7592258;19;20483;-72
2023/04/21 01:43:50;;;;;;;34.35;20.50;;;6.80;99.90;;;;;;7594115;19;20078;-71
2023/04/21 01:46:22;;;;;;;36.65;22.02;;;6.80;99.90;;;;;;7595973;19;20116;-72
2023/04/21 01:48:55;;;;;;;37.42;22.17;;;6.80;99.90;;;;;;7577242;19;20860;-72
2023/04/21 01:51:27;;;;;;;39.55;22.10;;;6.80;99.90;;;;;;7587771;19;20149;-72
2023/04/21 01:53:59;;;;;;;39.25;22.73;;;6.80;99.90;;;;;;7595961;19;20014;-71
2023/04/21 01:56:31;;;;;;;33.17;20.27;;;6.90;99.90;;;;;;7581837;19;20370;-72
2023/04/21 01:59:04;;;;;;;33.83;21.17;;;6.90;99.90;;;;;;7581466;19;20044;-72
2023/04/21 02:01:36;;;;;;;34.40;20.33;;;6.90;99.90;;;;;;7587152;19;20018;-71
2023/04/21 02:04:08;;;;;;;36.92;22.45;;;6.80;99.90;;;;;;7586271;19;20015;-72
2023/04/21 02:06:40;;;;;;;37.10;21.77;;;6.80;99.90;;;;;;7590193;19;20015;-72
2023/04/21 02:09:12;;;;;;;36.30;22.48;;;6.80;99.90;;;;;;7577224;19;20427;-71
2023/04/21 02:11:45;;;;;;;34.67;21.45;;;6.90;99.90;;;;;;7579269;19;20067;-71
2023/04/21 02:14:17;;;;;;;38.50;22.02;;;6.90;99.90;;;;;;7589064;19;20074;-71
2023/04/21 02:16:49;;;;;;;37.03;22.25;;;6.80;99.90;;;;;;7593719;19;21526;-72
2023/04/21 02:19:21;;;;;;;34.38;22.05;;;6.80;99.90;;;;;;7586618;19;20732;-71
2023/04/21 02:21:54;;;;;;;37.70;22.05;;;6.80;99.90;;;;;;7598158;19;20018;-71
2023/04/21 02:24:26;;;;;;;40.77;22.80;;;6.80;99.90;;;;;;7598274;19;20021;-71
2023/04/21 02:26:59;;;;;;;37.05;22.02;;;6.80;99.90;;;;;;7583104;19;21650;-72
2023/04/21 02:29:32;;;;;;;32.85;20.85;;;6.80;99.90;;;;;;7584406;19;20022;-72
2023/04/21 02:32:04;;;;;;;41.85;22.35;;;6.80;99.90;;;;;;7570294;19;20368;-72
2023/04/21 02:34:42;;;;;;;36.55;20.83;;;6.80;99.90;;;;;;7574640;19;20018;-71
2023/04/21 02:37:14;;;;;;;38.70;21.42;;;6.80;99.90;;;;;;7563971;19;20018;-71
2023/04/21 02:39:46;;;;;;;34.92;21.40;;;6.80;99.90;;;;;;7577645;19;20037;-71
2023/04/21 02:42:18;;;;;;;39.45;21.45;;;6.80;99.90;;;;;;7565607;19;20021;-71
2023/04/21 02:44:52;;;;;;;34.72;21.00;;;6.80;99.90;;;;;;7573515;19;20668;-72
2023/04/21 02:47:24;;;;;;;33.80;20.83;;;6.80;99.90;;;;;;7567776;19;21199;-72
2023/04/21 02:49:57;;;;;;;34.88;21.35;;;6.70;99.90;;;;;;7578657;19;20021;-72
2023/04/21 02:52:29;;;;;;;34.78;21.60;;;6.70;99.90;;;;;;7574119;19;20483;-71
2023/04/21 02:55:02;;;;;;;32.78;20.13;;;6.60;99.90;;;;;;7570982;19;20081;-71
2023/04/21 02:57:34;;;;;;;33.05;19.63;;;6.60;99.90;;;;;;7569817;19;20018;-72
2023/04/21 03:00:08;;;;;;;37.72;20.90;;;6.60;99.90;;;;;;7584998;19;20022;-71
2023/04/21 03:02:40;;;;;;;39.25;21.35;;;6.60;99.90;;;;;;7578410;19;20976;-71
2023/04/21 03:05:13;;;;;;;37.87;22.33;;;6.50;99.90;;;;;;7580935;19;20285;-70
2023/04/21 03:07:47;;;;;;;36.15;20.75;;;6.50;99.90;;;;;;7583764;19;20853;-71
2023/04/21 03:10:19;;;;;;;35.53;20.40;;;6.60;99.90;;;;;;7572671;19;20018;-71
2023/04/21 03:12:52;;;;;;;34.20;20.52;;;6.60;99.90;;;;;;7590263;19;20068;-72
2023/04/21 03:15:24;;;;;;;33.28;20.23;;;6.60;99.90;;;;;;7585603;19;20022;-71
2023/04/21 03:17:57;;;;;;;30.85;18.70;;;6.50;99.90;;;;;;7589119;19;20018;-71
2023/04/21 03:20:30;;;;;;;29.17;18.02;;;6.50;99.90;;;;;;7551590;19;20022;-71
2023/04/21 03:23:02;;;;;;;32.50;19.33;;;6.50;99.90;;;;;;7561504;19;20014;-71
2023/04/21 03:25:34;;;;;;;31.55;19.20;;;6.40;99.90;;;;;;7572102;19;20015;-71
2023/04/21 03:28:07;;;;;;;33.45;18.85;;;6.40;99.90;;;;;;7586397;19;20015;-72
2023/04/21 03:30:39;;;;;;;28.73;18.25;;;6.40;99.90;;;;;;7583432;19;20110;-71
2023/04/21 03:33:11;;;;;;;28.70;18.23;;;6.40;99.90;;;;;;7567182;19;20022;-71
2023/04/21 03:35:45;;;;;;;33.60;18.70;;;6.40;99.90;;;;;;7535850;19;20009;-71
2023/04/21 03:38:17;;;;;;;27.98;17.92;;;6.40;99.90;;;;;;7564705;19;20010;-71
2023/04/21 03:40:50;;;;;;;33.25;19.92;;;6.40;99.90;;;;;;7586980;19;20014;-71
2023/04/21 03:43:22;;;;;;;33.50;20.17;;;6.30;99.90;;;;;;7589235;19;20457;-71
2023/04/21 03:45:55;;;;;;;31.30;19.10;;;6.30;99.90;;;;;;7584820;19;20018;-71
2023/04/21 03:48:28;;;;;;;31.13;19.08;;;6.30;99.90;;;;;;7575023;19;21373;-71
2023/04/21 03:51:00;;;;;;;34.28;20.17;;;6.30;99.90;;;;;;7580490;19;20010;-71
2023/04/21 03:53:32;;;;;;;37.22;20.55;;;6.30;99.90;;;;;;7576587;19;20010;-71
2023/04/21 03:56:05;;;;;;;34.95;20.23;;;6.30;99.90;;;;;;7578457;19;20018;-71
2023/04/21 03:58:37;;;;;;;36.00;21.38;;;6.30;99.90;;;;;;7553372;19;20103;-71
2023/04/21 04:01:09;;;;;;;35.50;20.23;;;6.20;99.90;;;;;;7548503;19;20025;-71
2023/04/21 04:03:41;;;;;;;34.60;20.35;;;6.20;99.90;;;;;;7564790;19;20475;-72
2023/04/21 04:06:14;;;;;;;34.25;19.73;;;6.30;99.90;;;;;;7570593;19;20126;-71
2023/04/21 04:08:46;;;;;;;38.83;21.67;;;6.20;99.90;;;;;;7550147;19;20010;-71
2023/04/21 04:11:18;;;;;;;39.33;21.30;;;6.20;99.90;;;;;;7572310;19;20093;-71
2023/04/21 04:13:51;;;;;;;34.47;19.50;;;6.10;99.90;;;;;;7575456;19;20030;-71
2023/04/21 04:16:23;;;;;;;33.25;21.00;;;6.20;99.90;;;;;;7571182;19;20018;-71
2023/04/21 04:18:55;;;;;;;36.80;21.65;;;6.10;99.90;;;;;;7562044;19;21191;-71
2023/04/21 04:21:27;;;;;;;40.58;21.15;;;6.10;99.90;;;;;;7576752;19;20478;-70
2023/04/21 04:24:01;;;;;;;33.93;19.23;;;6.10;99.90;;;;;;7588490;19;20018;-71
2023/04/21 04:26:34;;;;;;;34.80;20.42;;;6.20;99.90;;;;;;7559122;19;20779;-73
2023/04/21 04:29:09;;;;;;;34.13;20.08;;;6.20;99.90;;;;;;7563228;19;20058;-70
2023/04/21 04:31:41;;;;;;;34.35;19.73;;;6.10;99.90;;;;;;7555371;19;20022;-71
2023/04/21 04:34:14;;;;;;;35.63;21.38;;;6.10;99.90;;;;;;7548533;19;20022;-71
2023/04/21 04:36:47;;;;;;;32.60;19.27;;;6.10;99.90;;;;;;7536672;19;20019;-71
2023/04/21 04:39:21;;;;;;;32.38;20.20;;;6.10;99.90;;;;;;7557368;19;20105;-71
2023/04/21 04:41:53;;;;;;;35.90;20.30;;;6.10;99.90;;;;;;7552045;19;20060;-71
2023/04/21 04:44:26;;;;;;;33.75;19.88;;;6.10;99.90;;;;;;7568654;19;20123;-71
2023/04/21 04:46:59;;;;;;;41.97;23.02;;;6.10;99.90;;;;;;7567313;19;20014;-71
2023/04/21 04:49:31;;;;;;;33.28;19.73;;;6.10;99.90;;;;;;7555910;19;20531;-71
2023/04/21 04:52:03;;;;;;;34.92;20.92;;;6.10;99.90;;;;;;7562558;19;20018;-71
2023/04/21 04:54:35;;;;;;;38.83;21.42;;;6.10;99.90;;;;;;7559633;19;20022;-71
2023/04/21 04:57:08;;;;;;;34.75;20.00;;;6.10;99.90;;;;;;7571952;19;20491;-72
2023/04/21 04:59:40;;;;;;;39.03;22.35;;;6.10;99.90;;;;;;7581782;19;20102;-73
2023/04/21 05:02:12;;;;;;;37.78;22.63;;;6.10;99.90;;;;;;7552798;19;20102;-72
2023/04/21 05:04:45;;;;;;;37.70;22.20;;;6.10;99.90;;;;;;7550932;19;20014;-73
2023/04/21 05:07:17;;;;;;;42.60;23.98;;;6.10;99.90;;;;;;7510728;19;20889;-72
2023/04/21 05:09:49;;;;;;;41.60;23.58;;;6.10;99.90;;;;;;7550059;19;20042;-69
2023/04/21 05:12:21;;;;;;;38.85;23.02;;;6.10;99.90;;;;;;7562010;19;20023;-71
2023/04/21 05:14:54;;;;;;;39.78;22.48;;;6.20;99.90;;;;;;7548881;19;20014;-72
2023/04/21 05:17:27;;;;;;;38.15;22.33;;;6.20;99.90;;;;;;7573805;19;20038;-74
2023/04/21 05:19:59;;;;;;;39.90;22.77;;;6.30;99.90;;;;;;7556997;19;20315;-72
2023/04/21 05:22:37;;;;;;;31.85;20.15;;;6.30;99.90;;;;;;7566876;19;20019;-71
2023/04/21 05:25:11;;;;;;;38.58;20.77;;;6.40;99.90;;;;;;7580766;19;20469;-72
2023/04/21 05:27:43;;;;;;;36.65;21.83;;;6.40;99.90;;;;;;7551535;19;20006;-72
2023/04/21 05:30:15;;;;;;;36.45;21.92;;;6.40;99.90;;;;;;7530755;19;20022;-72
2023/04/21 05:32:48;;;;;;;39.85;22.25;;;6.40;99.90;;;;;;7519309;19;20095;-72
2023/04/21 05:35:20;;;;;;;38.00;22.50;;;6.50;99.90;;;;;;7549594;19;20015;-72
2023/04/21 05:37:52;;;;;;;40.35;23.65;;;6.50;99.90;;;;;;7535386;19;20022;-72
2023/04/21 05:40:25;;;;;;;37.20;22.58;;;6.60;99.90;;;;;;7549952;19;20146;-72
2023/04/21 05:42:57;;;;;;;37.03;22.60;;;6.70;99.90;;;;;;7560825;19;20029;-72
2023/04/21 05:45:29;;;;;;;37.17;22.83;;;6.80;99.90;;;;;;7568959;19;20025;-72
2023/04/21 05:48:01;;;;;;;34.92;21.90;;;7.00;99.90;;;;;;7574528;19;20034;-73
2023/04/21 05:50:34;;;;;;;36.80;22.40;;;7.00;99.90;;;;;;7579450;19;20014;-74
2023/04/21 05:53:06;;;;;;;34.70;22.42;;;7.10;99.90;;;;;;7556166;19;20502;-72
2023/04/21 05:55:38;;;;;;;33.65;21.98;;;7.20;99.90;;;;;;7551879;19;20018;-72
2023/04/21 05:58:11;;;;;;;36.47;22.77;;;7.30;99.90;;;;;;7548811;19;20018;-72
2023/04/21 06:00:43;;;;;;;35.80;22.70;;;7.40;99.90;;;;;;7526980;19;20025;-70
2023/04/21 06:03:15;;;;;;;39.17;24.15;;;7.50;99.90;;;;;;7536550;19;20029;-71
2023/04/21 06:05:54;;;;;;;40.58;23.48;;;7.50;99.90;;;;;;7590664;19;20031;-71
2023/04/21 06:08:26;;;;;;;42.58;23.55;;;7.60;99.90;;;;;;7566718;19;20550;-72
2023/04/21 06:10:58;;;;;;;34.35;21.88;;;7.60;99.90;;;;;;7503591;19;20019;-73
2023/04/21 06:13:31;;;;;;;32.17;20.98;;;7.70;99.90;;;;;;7540274;19;20834;-73
2023/04/21 06:16:04;;;;;;;33.83;20.48;;;7.80;99.90;;;;;;7534318;19;20039;-74
2023/04/21 06:18:36;;;;;;;32.30;20.47;;;7.90;99.90;;;;;;7577937;19;20527;-72
2023/04/21 06:21:10;;;;;;;31.23;21.25;;;8.00;99.90;;;;;;7598950;19;20267;-73
2023/04/21 06:23:42;;;;;;;31.40;19.48;;;8.00;99.90;;;;;;7597204;19;20020;-72
2023/04/21 06:26:14;;;;;;;32.65;18.70;;;8.20;99.90;;;;;;7592267;19;20015;-74
2023/04/21 06:28:47;;;;;;;27.30;18.15;;;8.20;99.90;;;;;;7595901;19;20014;-74
2023/04/21 06:31:19;;;;;;;27.98;18.55;;;8.30;99.90;;;;;;7600655;19;20754;-74
2023/04/21 06:33:51;;;;;;;33.70;18.27;;;8.30;99.90;;;;;;7602354;19;20041;-72
2023/04/21 06:36:23;;;;;;;28.60;18.77;;;8.40;99.90;;;;;;7593797;19;20021;-72
2023/04/21 06:38:56;;;;;;;29.67;18.92;;;8.50;99.90;;;;;;7597182;19;20537;-74
2023/04/21 06:41:28;;;;;;;27.08;15.60;;;8.60;99.90;;;;;;7593237;19;20022;-72
2023/04/21 06:44:00;;;;;;;29.02;17.42;;;8.70;99.90;;;;;;7586632;19;20014;-72
2023/04/21 06:46:32;;;;;;;26.95;16.98;;;8.80;99.90;;;;;;7602144;19;20042;-72
2023/04/21 06:49:05;;;;;;;28.75;17.08;;;9.00;99.90;;;;;;7600818;19;20023;-72
2023/04/21 06:51:37;;;;;;;29.25;17.48;;;9.10;99.90;;;;;;7592202;19;20933;-72
2023/04/21 06:54:10;;;;;;;25.92;17.15;;;9.30;99.90;;;;;;7599142;19;20023;-72
2023/04/21 06:56:42;;;;;;;24.23;16.58;;;9.40;99.90;;;;;;7590709;19;20462;-72
2023/04/21 06:59:14;;;;;;;26.77;17.33;;;9.60;99.90;;;;;;7594594;19;20048;-72
2023/04/21 07:01:50;;;;;;;28.95;15.75;;;9.70;99.90;;;;;;7598201;19;20146;-72
2023/04/21 07:04:23;;;;;;;26.40;16.20;;;9.90;99.90;;;;;;7601137;19;20023;-75
2023/04/21 07:06:56;;;;;;;24.08;15.38;;;10.00;99.90;;;;;;7598041;19;20023;-74
2023/04/21 07:09:32;;;;;;;23.83;15.95;;;10.10;99.90;;;;;;7592719;19;20026;-74
2023/04/21 07:12:05;;;;;;;25.98;15.73;;;9.90;99.90;;;;;;7594169;19;20050;-74
2023/04/21 07:14:37;;;;;;;26.13;17.02;;;9.80;99.90;;;;;;7593772;19;20034;-74
2023/04/21 07:17:09;;;;;;;26.80;15.55;;;9.80;99.90;;;;;;7583149;19;20568;-73
2023/04/21 07:19:42;;;;;;;26.20;16.45;;;10.00;99.90;;;;;;7581389;19;20018;-73
2023/04/21 07:22:14;;;;;;;23.92;16.23;;;10.20;99.90;;;;;;7596819;19;21016;-73
2023/04/21 07:24:47;;;;;;;24.00;14.88;;;10.40;99.90;;;;;;7584221;19;20131;-73
2023/04/21 07:27:20;;;;;;;;;;;10.50;99.90;;;;;;7575539;19;20572;-72
2023/04/21 07:29:52;;;;;;;21.33;13.00;;;10.60;99.90;;;;;;7600502;19;19915;-73
2023/04/21 07:32:25;;;;;;;21.75;13.73;;;10.60;99.90;;;;;;7600135;19;20126;-75
2023/04/21 07:34:57;;;;;;;20.27;13.00;;;10.60;99.90;;;;;;7601028;19;20527;-73
2023/04/21 07:37:29;;;;;;;25.42;15.13;;;10.60;99.90;;;;;;7600259;19;21002;-72
2023/04/21 07:40:02;;;;;;;23.90;15.77;;;10.60;99.90;;;;;;7604523;19;20018;-72
2023/04/21 07:42:34;;;;;;;23.50;14.20;;;10.50;99.90;;;;;;7566773;19;20272;-74
2023/04/21 07:45:07;;;;;;;22.20;14.05;;;10.60;99.90;;;;;;7600232;19;20379;-73
2023/04/21 07:47:39;;;;;;;32.55;14.90;;;10.80;99.90;;;;;;7599711;19;20018;-72
2023/04/21 07:50:12;;;;;;;22.20;13.45;;;11.00;99.90;;;;;;7610814;19;20494;-73
2023/04/21 07:52:44;;;;;;;23.77;14.15;;;11.10;99.90;;;;;;7599939;19;20150;-72
2023/04/21 07:55:16;;;;;;;22.30;13.73;;;11.20;99.90;;;;;;7606085;19;20029;-73
2023/04/21 07:57:49;;;;;;;21.30;13.75;;;11.20;99.90;;;;;;7584583;19;20018;-73
2023/04/21 08:00:21;;;;;;;19.23;13.00;;;11.10;99.90;;;;;;7606580;19;20025;-72
2023/04/21 08:02:54;;;;;;;22.02;13.95;;;11.20;99.90;;;;;;7600713;19;20092;-73
2023/04/21 08:05:26;;;;;;;22.60;14.32;;;11.10;99.90;;;;;;7601788;19;20018;-73
2023/04/21 08:08:04;;;;;;;23.92;13.77;;;11.20;99.90;;;;;;7608861;19;21723;-73
2023/04/21 08:10:36;;;;;;;20.85;14.13;;;11.40;99.90;;;;;;7596352;19;21877;-73
2023/04/21 08:13:08;;;;;;;20.20;13.35;;;11.50;99.90;;;;;;7585288;19;20026;-73
2023/04/21 08:15:41;;;;;;;19.65;12.48;;;11.50;99.90;;;;;;7604388;19;20089;-73
2023/04/21 08:18:15;;;;;;;17.50;12.20;;;11.60;99.90;;;;;;7609454;19;21155;-72
2023/04/21 08:20:51;;;;;;;23.65;13.18;;;11.60;99.90;;;;;;7582908;19;20039;-72
2023/04/21 08:23:23;;;;;;;19.52;12.90;;;11.70;99.90;;;;;;7606053;19;20011;-74
2023/04/21 08:25:56;;;;;;;18.45;12.25;;;11.80;99.90;;;;;;7593603;19;20108;-72
2023/04/21 08:28:28;;;;;;;22.23;13.05;;;11.90;99.90;;;;;;7603198;19;20018;-72
2023/04/21 08:31:01;;;;;;;17.98;12.60;;;12.00;99.90;;;;;;7604278;19;20046;-73
2023/04/21 08:33:34;;;;;;;20.38;12.57;;;12.00;99.90;;;;;;7605596;19;20142;-73
2023/04/21 08:36:13;;;;;;;16.75;12.00;;;12.10;99.90;;;;;;7606079;19;20042;-72
2023/04/21 08:39:00;;;;;;;21.02;11.65;;;12.10;99.90;;;;;;7604454;19;20015;-73
2023/04/21 08:41:33;;;;;;;17.93;11.30;;;12.10;99.90;;;;;;7603121;19;20014;-73
2023/04/21 08:44:05;;;;;;;14.68;10.02;;;12.30;99.90;;;;;;7589244;19;20019;-73
2023/04/21 08:46:38;;;;;;;20.48;12.05;;;12.30;99.90;;;;;;7602747;19;20500;-73
2023/04/21 08:49:15;;;;;;;18.85;11.60;;;12.40;99.90;;;;;;7608872;19;20413;-73
2023/04/21 08:51:47;;;;;;;15.73;10.13;;;12.50;99.90;;;;;;7588095;19;20034;-73
2023/04/21 08:54:20;;;;;;;16.92;11.52;;;12.40;99.90;;;;;;7599517;19;20015;-73
2023/04/21 08:56:52;;;;;;;19.88;12.32;;;12.30;99.90;;;;;;7600626;19;20022;-74
2023/04/21 08:59:36;;;;;;;19.27;12.40;;;12.40;99.90;;;;;;7606153;19;20628;-74
2023/04/21 09:02:16;;;;;;;16.67;11.40;;;12.50;99.90;;;;;;7592475;19;20349;-73
2023/04/21 09:04:50;;;;;;;17.70;11.52;;;12.40;99.90;;;;;;7601750;19;20014;-72
2023/04/21 09:07:34;;;;;;;18.20;11.02;;;12.40;99.90;;;;;;7602296;19;20025;-73
2023/04/21 09:10:07;;;;;;;17.73;11.70;;;12.30;99.90;;;;;;7606778;19;20042;-72
2023/04/21 09:12:39;;;;;;;17.05;9.85;;;12.30;99.90;;;;;;7595577;19;20033;-72
2023/04/21 09:15:12;;;;;;;17.00;10.88;;;12.40;99.90;;;;;;7601993;19;20106;-74
2023/04/21 09:17:44;;;;;;;18.40;11.05;;;12.40;99.90;;;;;;7598940;19;20359;-75
2023/04/21 09:20:20;;;;;;;21.63;11.70;;;12.40;99.90;;;;;;7601812;19;20074;-72
2023/04/21 09:22:52;;;;;;;16.08;10.60;;;12.40;99.90;;;;;;7600629;19;20978;-72
2023/04/21 09:25:24;;;;;;;19.15;11.95;;;12.40;99.90;;;;;;7600085;19;20543;-73
2023/04/21 09:27:56;;;;;;;21.85;12.43;;;12.40;99.90;;;;;;7597001;19;20022;-72
2023/04/21 09:30:29;;;;;;;18.00;11.93;;;12.50;99.90;;;;;;7603909;19;20023;-73
2023/04/21 09:33:01;;;;;;;16.33;10.63;;;12.60;99.90;;;;;;7604208;19;20608;-74
2023/04/21 09:35:44;;;;;;;14.70;10.45;;;12.60;99.90;;;;;;7592511;19;20018;-74
2023/04/21 09:38:17;;;;;;;17.25;11.00;;;12.60;99.90;;;;;;7606207;19;20061;-74
2023/04/21 09:40:58;;;;;;;17.00;10.50;;;12.60;99.90;;;;;;7604072;19;20033;-74
2023/04/21 09:43:30;;;;;;;16.58;10.55;;;12.70;99.90;;;;;;7593819;19;20018;-74
2023/04/21 09:46:05;;;;;;;17.63;10.95;;;12.80;99.90;;;;;;7600000;19;20366;-72
2023/04/21 09:48:43;;;;;;;16.10;10.65;;;12.90;99.90;;;;;;7594774;19;20454;-74
2023/04/21 09:51:16;;;;;;;18.20;11.32;;;12.90;99.90;;;;;;7606546;19;20120;-72
2023/04/21 09:53:56;;;;;;;16.77;11.18;;;12.90;99.90;;;;;;7598307;19;20022;-73
2023/04/21 09:56:32;;;;;;;16.88;11.18;;;13.00;99.90;;;;;;7594673;19;20018;-73
2023/04/21 09:59:10;;;;;;;17.83;11.63;;;13.00;99.90;;;;;;7598366;19;20026;-72
2023/04/21 10:01:47;;;;;;;21.30;12.48;;;13.00;99.90;;;;;;7602047;19;20486;-73
2023/04/21 10:04:22;;;;;;;16.20;10.63;;;13.00;99.90;;;;;;7606395;19;20026;-73
2023/04/21 10:06:55;;;;;;;13.65;9.90;;;13.10;99.90;;;;;;7598367;19;20014;-73
2023/04/21 10:09:35;;;;;;;14.82;9.88;;;13.30;99.90;;;;;;7602573;19;20102;-72
2023/04/21 10:12:09;;;;;;;14.77;9.32;;;13.40;99.90;;;;;;7597942;19;20017;-73
2023/04/21 10:14:41;;;;;;;14.45;9.93;;;13.60;99.90;;;;;;7594703;19;20014;-72
2023/04/21 10:17:14;;;;;;;15.80;9.27;;;13.70;99.50;;;;;;7600448;19;20022;-73
2023/04/21 10:19:51;;;;;;;19.17;10.63;;;13.80;99.10;;;;;;7589918;19;20026;-73
2023/04/21 10:22:32;;;;;;;11.88;8.55;;;13.90;99.00;;;;;;7601585;19;20057;-73
2023/04/21 10:25:08;;;;;;;14.35;9.73;;;14.10;99.70;;;;;;7602718;19;20451;-73
2023/04/21 10:27:44;;;;;;;15.70;10.45;;;14.10;98.50;;;;;;7575107;19;20023;-73
2023/04/21 10:30:22;;;;;;;14.18;9.32;;;14.00;99.10;;;;;;7603022;19;20022;-74
2023/04/21 10:33:04;;;;;;;14.63;9.02;;;14.10;99.40;;;;;;7599343;19;20022;-73
2023/04/21 10:36:02;;;;;;;16.75;9.57;;;14.10;96.50;;;;;;7607591;19;20462;-74
2023/04/21 10:38:42;;;;;;;13.05;8.18;;;14.20;96.30;;;;;;7600059;19;20052;-73
2023/04/21 10:41:31;;;;;;;9.95;6.80;;;14.30;95.60;;;;;;7594730;19;20018;-73
2023/04/21 10:44:22;;;;;;;8.40;6.70;;;14.40;92.40;;;;;;7595973;19;20018;-73
2023/04/21 10:46:57;;;;;;;10.45;6.05;;;14.50;93.10;;;;;;7598701;19;20031;-73
2023/04/21 10:49:30;;;;;;;11.35;6.75;;;14.60;93.00;;;;;;7604712;19;20042;-73
2023/04/21 10:52:03;;;;;;;11.82;8.18;;;14.60;92.30;;;;;;7587223;19;21070;-72
2023/04/21 10:55:02;;;;;;;9.35;6.00;;;14.70;92.10;;;;;;7603511;19;20036;-73
2023/04/21 10:57:35;;;;;;;9.07;6.28;;;14.80;92.70;;;;;;7593588;19;20022;-73
2023/04/21 11:00:08;;;;;;;;;;;15.00;91.60;;;;;;7595029;19;20022;-72
2023/04/21 11:02:41;;;;;;;9.75;5.50;;;15.30;90.30;;;;;;7597480;19;19926;-73
2023/04/21 11:05:16;;;;;;;8.32;5.45;;;15.60;88.70;;;;;;7598873;19;20109;-73
2023/04/21 11:07:48;;;;;;;8.77;5.80;;;15.70;84.20;;;;;;7600715;19;20014;-73
2023/04/21 11:10:21;;;;;;;9.85;5.90;;;16.00;84.90;;;;;;7603959;19;20023;-73
2023/04/21 11:12:56;;;;;;;9.13;6.15;;;16.20;85.10;;;;;;7592783;19;20557;-73
2023/04/21 11:15:28;;;;;;;8.75;5.43;;;16.30;80.80;;;;;;7600202;19;20019;-73
2023/04/21 11:18:01;;;;;;;10.63;7.63;;;16.60;80.60;;;;;;7600504;19;20809;-74
2023/04/21 11:20:33;;;;;;;9.38;6.30;;;16.90;80.40;;;;;;7594723;19;20029;-74
2023/04/21 11:23:05;;;;;;;8.15;6.45;;;17.30;80.90;;;;;;7593384;19;20011;-73
2023/04/21 11:25:37;;;;;;;10.57;6.75;;;17.50;78.90;;;;;;7607681;19;20379;-73
2023/04/21 11:28:10;;;;;;;12.40;8.77;;;17.80;79.10;;;;;;7564446;19;20019;-73
2023/04/21 11:30:42;;;;;;;11.02;8.02;;;17.90;76.60;;;;;;7599426;19;20363;-73
2023/04/21 11:33:15;;;;;;;11.32;8.50;;;18.30;76.50;;;;;;7597793;19;20026;-73
2023/04/21 11:35:50;;;;;;;10.35;7.70;;;18.50;76.10;;;;;;7598018;19;20813;-74
2023/04/21 11:38:23;;;;;;;11.25;6.75;;;18.70;73.90;;;;;;7567775;19;20023;-73
2023/04/21 11:40:55;;;;;;;7.55;5.97;;;18.80;73.40;;;;;;7581544;19;21271;-74
2023/04/21 11:43:28;;;;;;;9.00;6.85;;;18.90;72.50;;;;;;7598781;19;20027;-73
2023/04/21 11:46:25;;;;;;;10.50;6.97;;;19.10;69.90;;;;;;7599576;19;20016;-74
2023/04/21 11:49:09;;;;;;;14.18;8.23;;;19.00;70.80;;;;;;7594437;19;20030;-73
2023/04/21 11:51:42;;;;;;;;;;;19.00;71.30;;;;;;7598381;19;20026;-72
2023/04/21 11:54:17;;;;;;;12.00;7.70;;;19.30;71.90;;;;;;7599973;19;19919;-73
2023/04/21 11:56:50;;;;;;;10.73;7.82;;;19.50;70.30;;;;;;7592731;19;20505;-72
2023/04/21 11:59:25;;;;;;;12.52;9.32;;;19.60;70.30;;;;;;7577306;19;20018;-72
2023/04/21 12:01:57;;;;;;;14.07;9.00;;;19.90;70.30;;;;;;7558299;19;20021;-73
2023/04/21 12:04:29;;;;;;;12.38;9.73;;;20.00;71.20;;;;;;7554969;19;20171;-73
2023/04/21 12:07:05;;;;;;;14.85;9.90;;;19.90;70.40;;;;;;7552348;19;20010;-73
2023/04/21 12:09:37;;;;;;;11.15;8.85;;;20.30;69.30;;;;;;7592912;19;20126;-72
2023/04/21 12:12:09;;;;;;;15.18;8.23;;;20.20;69.30;;;;;;7588126;19;20030;-72
2023/04/21 12:14:44;;;;;;;10.82;8.43;;;20.30;67.90;;;;;;7599675;19;20029;-73
2023/04/21 12:17:16;;;;;;;8.93;6.80;;;20.30;66.90;;;;;;7606497;19;20041;-74
2023/04/21 12:19:49;;;;;;;9.73;5.95;;;20.30;65.80;;;;;;7593604;19;20065;-73
2023/04/21 12:22:22;;;;;;;5.78;4.82;;;20.30;66.20;;;;;;7601287;19;20040;-73
2023/04/21 12:24:54;;;;;;;5.45;4.78;;;20.40;63.90;;;;;;7591587;19;20297;-73
2023/04/21 12:27:27;;;;;;;6.18;4.25;;;20.70;63.10;;;;;;7595800;19;20018;-73
2023/04/21 12:29:59;;;;;;;6.60;5.17;;;20.80;63.00;;;;;;7593313;19;20023;-73
2023/04/21 12:32:32;;;;;;;8.32;5.00;;;20.80;61.50;;;;;;7600407;19;20011;-72
2023/04/21 12:35:04;;;;;;;7.43;5.00;;;20.90;61.50;;;;;;7594839;19;20025;-73
2023/04/21 12:37:36;;;;;;;8.38;4.50;;;20.80;60.60;;;;;;7593242;19;20019;-72
2023/04/21 12:40:09;;;;;;;6.35;4.70;;;20.90;61.90;;;;;;7591632;19;20022;-73
2023/04/21 12:42:41;;;;;;;4.93;4.43;;;21.00;60.40;;;;;;7588911;19;20038;-73
2023/04/21 12:45:13;;;;;;;4.97;4.30;;;21.30;60.10;;;;;;7591538;19;20961;-73
2023/04/21 12:47:45;;;;;;;7.72;5.00;;;21.40;60.00;;;;;;7588930;19;20029;-74
2023/04/21 12:50:18;;;;;;;6.65;5.47;;;21.60;59.20;;;;;;7602762;19;20018;-73
2023/04/21 12:52:53;;;;;;;7.22;5.18;;;21.40;60.00;;;;;;7596510;19;20022;-72
2023/04/21 12:55:26;;;;;;;6.10;4.45;;;21.80;60.30;;;;;;7592777;19;20026;-73
2023/04/21 12:57:58;;;;;;;5.72;4.32;;;22.10;60.80;;;;;;7597578;19;20018;-73
2023/04/21 13:00:32;;;;;;;10.27;4.30;;;22.00;58.10;;;;;;7583853;19;20010;-73
2023/04/21 13:03:04;;;;;;;9.57;5.20;;;22.20;59.20;;;;;;7583635;19;20070;-73
2023/04/21 13:05:36;;;;;;;6.90;5.00;;;22.20;57.30;;;;;;7590952;19;20093;-73
2023/04/21 13:08:08;;;;;;;5.10;4.60;;;22.20;59.20;;;;;;7586243;19;20051;-73